Time;durP1;ratioP1;P1;durP2;ratioP2;P2;SDS_P1;SDS_P2;PMS_P1;PMS_P2;Temp;Humidity;BMP_temperature;BMP_pressure;BME280_temperature;BME280_humidity;BME280_pressure;Samples;Min_cycle;Max_cycle;Signal;HPM_P1;HPM_P2
2023/07/12 00:01:29;;;;;;;7.07;4.45;;;;;;;;;;20910237;28;20045;-72
2023/07/12 00:11:30;;;;;;;4.82;4.00;;;;;;;;;;20920615;28;20048;-72
2023/07/12 00:21:31;;;;;;;6.53;4.30;;;;;;;;;;20925443;28;20230;-71
2023/07/12 00:31:34;;;;;;;6.95;3.80;;;;;;;;;;20925203;28;20490;-71
2023/07/12 00:41:57;;;;;;;6.07;4.13;;;;;;;;;;20924564;28;20047;-71
2023/07/12 00:52:17;;;;;;;6.30;4.70;;;;;;;;;;20923556;28;20041;-72
2023/07/12 01:02:23;;;;;;;6.63;3.90;;;;;;;;;;20922858;28;20044;-71
2023/07/12 01:12:24;;;;;;;;;;;;;;;;;;20922439;28;20048;-71
2023/07/12 01:22:25;;;;;;;8.40;3.50;;;;;;;;;;20919243;28;19928;-71
2023/07/12 01:32:27;;;;;;;9.50;3.85;;;;;;;;;;20920390;28;20049;-71
2023/07/12 01:42:28;;;;;;;5.53;3.70;;;;;;;;;;20920041;28;20394;-71
2023/07/12 01:52:29;;;;;;;5.72;3.92;;;;;;;;;;20919026;28;20490;-71
2023/07/12 02:02:31;;;;;;;6.30;3.25;;;;;;;;;;20918357;28;20491;-71
2023/07/12 02:12:32;;;;;;;4.97;3.65;;;;;;;;;;20917585;28;20099;-71
2023/07/12 02:22:35;;;;;;;4.47;3.55;;;;;;;;;;20916109;28;20053;-71
2023/07/12 02:32:36;;;;;;;5.28;3.55;;;;;;;;;;20916023;28;20049;-71
2023/07/12 02:42:37;;;;;;;4.45;2.95;;;;;;;;;;20915399;28;20045;-71
2023/07/12 02:52:39;;;;;;;4.32;3.38;;;;;;;;;;20914731;28;20489;-71
2023/07/12 03:02:40;;;;;;;7.10;3.25;;;;;;;;;;20914238;28;20384;-71
2023/07/12 03:12:41;;;;;;;5.47;3.45;;;;;;;;;;20912476;28;20052;-71
2023/07/12 03:22:42;;;;;;;5.95;3.72;;;;;;;;;;20913804;28;20057;-71
2023/07/12 03:32:43;;;;;;;6.88;3.38;;;;;;;;;;20912927;28;20045;-71
2023/07/12 03:42:44;;;;;;;6.05;4.00;;;;;;;;;;20917200;28;20095;-71
2023/07/12 03:52:45;;;;;;;9.85;6.95;;;;;;;;;;20928606;28;20068;-70
2023/07/12 04:02:47;;;;;;;6.05;4.05;;;;;;;;;;20927594;28;20052;-71
2023/07/12 04:12:48;;;;;;;5.97;3.40;;;;;;;;;;20927377;28;20489;-71
2023/07/12 04:22:50;;;;;;;4.95;3.45;;;;;;;;;;20924903;28;20057;-69
2023/07/12 04:32:52;;;;;;;9.20;3.90;;;;;;;;;;20924234;28;20048;-70
2023/07/12 04:42:53;;;;;;;6.85;3.58;;;;;;;;;;20924753;28;20052;-71
2023/07/12 04:52:54;;;;;;;6.30;3.67;;;;;;;;;;20923327;28;20067;-71
2023/07/12 05:02:55;;;;;;;10.18;4.03;;;;;;;;;;20921308;28;20128;-70
2023/07/12 05:12:56;;;;;;;7.43;3.72;;;;;;;;;;20920455;28;20047;-70
2023/07/12 05:22:57;;;;;;;9.20;3.90;;;;;;;;;;20920770;28;20061;-70
2023/07/12 05:32:59;;;;;;;6.30;3.67;;;;;;;;;;20918903;28;20174;-71
2023/07/12 05:43:00;;;;;;;6.20;3.88;;;;;;;;;;20919500;28;20406;-70
2023/07/12 05:53:02;;;;;;;8.00;3.65;;;;;;;;;;20917078;28;20091;-70
2023/07/12 06:03:03;;;;;;;7.43;3.63;;;;;;;;;;20917786;28;20120;-70
2023/07/12 06:13:04;;;;;;;6.85;4.53;;;;;;;;;;20917355;28;20083;-70
2023/07/12 06:23:05;;;;;;;16.73;5.10;;;;;;;;;;20916828;28;20103;-70
2023/07/12 06:33:06;;;;;;;12.75;5.07;;;;;;;;;;20914717;28;20041;-71
2023/07/12 06:43:07;;;;;;;13.23;5.03;;;;;;;;;;20914258;28;20048;-71
2023/07/12 06:53:08;;;;;;;9.38;4.05;;;;;;;;;;20914820;28;20099;-73
2023/07/12 07:03:10;;;;;;;11.88;4.80;;;;;;;;;;20914248;28;20474;-75
2023/07/12 07:13:11;;;;;;;15.10;4.20;;;;;;;;;;20911594;28;20052;-74
2023/07/12 07:23:13;;;;;;;12.48;5.13;;;;;;;;;;20926773;28;20049;-75
2023/07/12 07:33:14;;;;;;;7.13;4.30;;;;;;;;;;20930021;28;20052;-74
2023/07/12 07:43:15;;;;;;;7.72;3.65;;;;;;;;;;20929183;28;20049;-73
2023/07/12 07:53:17;;;;;;;7.85;4.30;;;;;;;;;;20928577;28;20071;-74
2023/07/12 08:03:19;;;;;;;9.68;3.50;;;;;;;;;;20928384;28;20120;-69
2023/07/12 08:13:20;;;;;;;4.65;3.20;;;;;;;;;;20926378;28;20507;-69
2023/07/12 08:23:21;;;;;;;4.13;3.03;;;;;;;;;;20924692;28;20492;-71
2023/07/12 08:33:22;;;;;;;8.75;3.75;;;;;;;;;;20924503;28;20532;-67
2023/07/12 08:43:28;;;;;;;7.60;4.32;;;;;;;;;;20923928;28;20041;-64
2023/07/12 08:53:33;;;;;;;6.47;3.87;;;;;;;;;;20922847;28;20494;-66
2023/07/12 09:03:34;;;;;;;;;;;;;;;;;;20922407;28;20454;-68
2023/07/12 09:13:37;;;;;;;5.15;3.42;;;;;;;;;;20919631;28;19928;-66
2023/07/12 09:23:39;;;;;;;8.90;4.05;;;;;;;;;;20919182;28;20049;-66
2023/07/12 09:33:40;;;;;;;7.40;3.50;;;;;;;;;;20919919;28;20072;-63
2023/07/12 09:43:45;;;;;;;4.75;3.45;;;;;;;;;;20917033;28;20079;-69
2023/07/12 09:53:49;;;;;;;4.97;3.60;;;;;;;;;;20917544;28;20052;-62
2023/07/12 10:03:56;;;;;;;14.40;3.80;;;;;;;;;;20917590;28;20128;-67
2023/07/12 10:13:59;;;;;;;7.43;2.60;;;;;;;;;;20916082;28;20045;-62
2023/07/12 10:24:03;;;;;;;5.70;2.90;;;;;;;;;;20915549;28;20512;-67
2023/07/12 10:34:10;;;;;;;6.82;3.22;;;;;;;;;;20915657;28;20041;-64
2023/07/12 10:44:18;;;;;;;4.45;2.53;;;;;;;;;;20914010;28;20536;-63
2023/07/12 10:54:31;;;;;;;5.22;2.40;;;;;;;;;;20914385;28;20052;-63
2023/07/12 11:04:35;;;;;;;3.47;2.20;;;;;;;;;;20914189;28;20479;-63
2023/07/12 11:14:42;;;;;;;3.08;2.45;;;;;;;;;;20913348;28;20073;-71
2023/07/12 11:25:06;;;;;;;3.75;2.28;;;;;;;;;;20914676;28;20060;-78
2023/07/12 11:35:13;;;;;;;6.00;2.75;;;;;;;;;;20914106;28;20045;-64
2023/07/12 11:45:17;;;;;;;5.45;2.42;;;;;;;;;;20911262;28;20037;-66
2023/07/12 11:55:22;;;;;;;5.50;2.70;;;;;;;;;;20911158;28;20049;-64
2023/07/12 12:05:34;;;;;;;4.15;2.80;;;;;;;;;;20918265;28;20083;-63
2023/07/12 12:15:43;;;;;;;4.03;2.95;;;;;;;;;;20926598;28;20048;-62
2023/07/12 12:25:48;;;;;;;4.90;2.78;;;;;;;;;;20925704;28;20041;-66
2023/07/12 12:35:54;;;;;;;3.50;2.22;;;;;;;;;;20924824;28;20593;-66
2023/07/12 12:45:55;;;;;;;4.75;2.42;;;;;;;;;;20924385;28;20514;-66
2023/07/12 12:55:56;;;;;;;6.43;2.53;;;;;;;;;;20923221;28;20045;-67
2023/07/12 13:05:58;;;;;;;6.45;2.35;;;;;;;;;;20922283;28;20041;-66
2023/07/12 13:15:59;;;;;;;5.55;3.22;;;;;;;;;;20919725;28;20131;-66
2023/07/12 13:26:00;;;;;;;6.47;3.70;;;;;;;;;;20919946;28;20052;-66
2023/07/12 13:36:01;;;;;;;5.68;2.50;;;;;;;;;;20920564;28;20521;-67
2023/07/12 13:46:03;;;;;;;5.78;3.05;;;;;;;;;;20919650;28;20048;-66
2023/07/12 13:56:04;;;;;;;3.25;2.03;;;;;;;;;;20919226;28;20041;-67
2023/07/12 14:06:06;;;;;;;4.03;2.05;;;;;;;;;;20916605;28;20045;-66
2023/07/12 14:16:07;;;;;;;3.08;2.20;;;;;;;;;;20916066;28;20044;-66
2023/07/12 14:26:17;;;;;;;1.65;1.45;;;;;;;;;;20915866;28;20049;-67
2023/07/12 14:36:19;;;;;;;1.95;1.40;;;;;;;;;;20914603;28;20091;-66
2023/07/12 14:46:20;;;;;;;2.25;1.60;;;;;;;;;;20915042;28;20045;-67
2023/07/12 14:56:22;;;;;;;3.10;1.70;;;;;;;;;;20914558;28;20067;-66
2023/07/12 15:06:23;;;;;;;2.10;1.70;;;;;;;;;;20912699;28;20045;-67
2023/07/12 15:16:24;;;;;;;3.72;2.15;;;;;;;;;;20913749;28;20045;-67
2023/07/12 15:26:26;;;;;;;6.13;3.63;;;;;;;;;;20912500;28;20514;-66
2023/07/12 15:36:30;;;;;;;2.95;1.90;;;;;;;;;;20913781;28;20052;-66
2023/07/12 15:46:32;;;;;;;4.13;1.85;;;;;;;;;;20927841;28;20104;-65
2023/07/12 15:56:34;;;;;;;2.80;2.20;;;;;;;;;;20928185;28;20083;-67
2023/07/12 16:06:35;;;;;;;3.55;2.05;;;;;;;;;;20927110;28;20077;-66
2023/07/12 16:16:36;;;;;;;2.90;1.73;;;;;;;;;;20925494;28;20056;-67
2023/07/12 16:26:38;;;;;;;2.75;1.98;;;;;;;;;;20926371;28;20056;-66
2023/07/12 16:36:39;;;;;;;5.55;2.28;;;;;;;;;;20925393;28;20100;-66
2023/07/12 16:46:40;;;;;;;2.72;2.17;;;;;;;;;;20924058;28;20392;-67
2023/07/12 16:56:42;;;;;;;3.00;2.20;;;;;;;;;;20923400;28;20053;-67
2023/07/12 17:06:43;;;;;;;3.20;2.35;;;;;;;;;;20922874;28;20040;-66
2023/07/12 17:16:44;;;;;;;3.22;2.67;;;;;;;;;;20921946;28;20064;-67
2023/07/12 17:37:24;;;;;;;3.80;2.70;;;;;;;;;;20920566;28;20136;-67
2023/07/12 17:47:28;;;;;;;4.25;2.05;;;;;;;;;;20919672;28;20045;-67
2023/07/12 17:57:29;;;;;;;;;;;;;;;;;;20919555;28;20041;-67
2023/07/12 18:07:32;;;;;;;4.13;2.90;;;;;;;;;;20915784;28;19960;-67
2023/07/12 18:17:33;;;;;;;4.45;2.25;;;;;;;;;;20917282;28;20068;-66
2023/07/12 18:27:34;;;;;;;3.15;2.38;;;;;;;;;;20917011;28;20132;-67
2023/07/12 18:37:48;;;;;;;4.88;2.35;;;;;;;;;;20914472;28;20064;-67
2023/07/12 18:47:49;;;;;;;3.17;2.20;;;;;;;;;;20915331;28;20106;-67
2023/07/12 18:57:52;;;;;;;3.13;2.50;;;;;;;;;;20915264;28;20041;-67
2023/07/12 19:07:53;;;;;;;3.55;2.75;;;;;;;;;;20914157;28;20572;-66
2023/07/12 19:17:54;;;;;;;4.28;3.10;;;;;;;;;;20913430;28;20045;-65
2023/07/12 19:27:55;;;;;;;6.40;3.20;;;;;;;;;;20914067;28;20394;-67
2023/07/12 19:37:57;;;;;;;5.30;3.58;;;;;;;;;;20912659;28;20064;-66
2023/07/12 19:47:58;;;;;;;4.78;3.55;;;;;;;;;;20912411;28;20410;-66
2023/07/12 19:57:59;;;;;;;6.30;4.18;;;;;;;;;;20912434;28;20406;-66
2023/07/12 20:08:00;;;;;;;5.85;3.83;;;;;;;;;;20911459;28;20540;-66
2023/07/12 20:18:02;;;;;;;3.97;2.80;;;;;;;;;;20909716;28;20047;-67
2023/07/12 20:28:03;;;;;;;6.63;2.95;;;;;;;;;;20917925;28;20052;-67
2023/07/12 20:38:05;;;;;;;3.45;2.20;;;;;;;;;;20923607;28;20051;-66
2023/07/12 20:48:07;;;;;;;4.03;2.50;;;;;;;;;;20922769;28;20076;-68
2023/07/12 20:58:08;;;;;;;4.55;2.13;;;;;;;;;;20922469;28;20049;-66
2023/07/12 21:08:11;;;;;;;4.05;2.05;;;;;;;;;;20922595;28;20371;-67
2023/07/12 21:18:12;;;;;;;4.45;2.08;;;;;;;;;;20922181;28;20096;-65
2023/07/12 21:28:14;;;;;;;4.65;2.00;;;;;;;;;;20919854;28;20107;-66
2023/07/12 21:38:16;;;;;;;3.40;1.60;;;;;;;;;;20918124;28;20044;-66
2023/07/12 21:48:17;;;;;;;3.00;2.10;;;;;;;;;;20919555;28;20045;-67
2023/07/12 21:58:18;;;;;;;2.42;1.60;;;;;;;;;;20919116;28;20479;-67
2023/07/12 22:08:19;;;;;;;3.08;1.40;;;;;;;;;;20918563;28;20045;-66
2023/07/12 22:18:20;;;;;;;4.10;1.90;;;;;;;;;;20917625;28;20049;-66
2023/07/12 22:28:21;;;;;;;3.50;2.00;;;;;;;;;;20915234;28;20499;-66
2023/07/12 22:38:23;;;;;;;3.35;2.42;;;;;;;;;;20916322;28;20409;-66
2023/07/12 22:48:25;;;;;;;2.33;1.40;;;;;;;;;;20915428;28;20056;-67
2023/07/12 22:58:26;;;;;;;2.20;1.05;;;;;;;;;;20913883;28;20048;-66
2023/07/12 23:08:28;;;;;;;1.50;1.02;;;;;;;;;;20914518;28;20041;-66
2023/07/12 23:18:29;;;;;;;4.50;1.10;;;;;;;;;;20914116;28;20115;-66
2023/07/12 23:28:30;;;;;;;2.78;1.40;;;;;;;;;;20912309;28;20053;-66
2023/07/12 23:38:32;;;;;;;2.17;0.90;;;;;;;;;;20912068;28;20056;-66
2023/07/12 23:48:34;;;;;;;2.80;1.30;;;;;;;;;;20911427;28;20037;-66
2023/07/12 23:59:09;;;;;;;2.80;1.33;;;;;;;;;;20913483;28;20043;-66
